Time;durP1;ratioP1;P1;durP2;ratioP2;P2;SDS_P1;SDS_P2;PMS_P1;PMS_P2;Temp;Humidity;BMP_temperature;BMP_pressure;BME280_temperature;BME280_humidity;BME280_pressure;Samples;Min_cycle;Max_cycle;Signal;HPM_P1;HPM_P2
2022/05/20 04:02:39;;;;;;;17.67;15.97;;;15.80;99.90;;;;;;4990636;28;21032;-66
2022/05/20 04:05:06;;;;;;;14.57;13.17;;;15.70;99.90;;;;;;4985612;28;20575;-66
2022/05/20 04:07:33;;;;;;;13.60;12.40;;;15.80;99.90;;;;;;4999755;28;20463;-66
2022/05/20 04:09:59;;;;;;;10.60;9.50;;;15.70;99.90;;;;;;4991261;28;20725;-65
2022/05/20 04:12:28;;;;;;;8.80;8.20;;;15.70;99.90;;;;;;4973265;28;20484;-68
2022/05/20 04:14:56;;;;;;;8.70;7.80;;;15.60;99.90;;;;;;4971844;28;20464;-69
2022/05/20 04:17:23;;;;;;;6.90;6.40;;;15.50;99.90;;;;;;4972149;28;20540;-67
2022/05/20 04:19:51;;;;;;;7.13;6.40;;;15.40;99.90;;;;;;4971393;28;20468;-67
2022/05/20 04:22:20;;;;;;;7.90;7.10;;;15.40;99.90;;;;;;4972256;28;20801;-67
2022/05/20 04:24:47;;;;;;;6.77;6.17;;;15.40;99.90;;;;;;4971973;28;20487;-68
2022/05/20 04:27:15;;;;;;;5.87;5.37;;;15.40;99.90;;;;;;4972388;28;20464;-67
2022/05/20 04:29:42;;;;;;;5.90;5.50;;;15.40;99.90;;;;;;4970587;28;21041;-68
2022/05/20 04:32:09;;;;;;;5.67;5.33;;;15.40;99.90;;;;;;4971994;28;20846;-67
2022/05/20 04:34:35;;;;;;;6.07;5.57;;;15.40;99.90;;;;;;4971669;28;20530;-67
2022/05/20 04:37:04;;;;;;;5.77;5.27;;;15.40;99.90;;;;;;4972023;28;20534;-67
2022/05/20 04:39:31;;;;;;;4.80;4.57;;;15.40;99.90;;;;;;4971543;28;20820;-67
2022/05/20 04:47:28;;;;;;;5.00;4.70;;;15.40;99.90;;;;;;4972252;28;20474;-67
2022/05/20 04:49:55;;;;;;;4.93;4.73;;;15.40;99.90;;;;;;4971282;28;20772;-67
2022/05/20 04:52:23;;;;;;;4.23;4.03;;;15.40;99.90;;;;;;4971987;28;20599;-67
2022/05/20 04:54:49;;;;;;;4.27;4.17;;;15.40;99.90;;;;;;4979867;28;20517;-67
2022/05/20 04:57:26;;;;;;;4.47;4.23;;;15.40;99.90;;;;;;4991029;28;20463;-67
2022/05/20 04:59:54;;;;;;;4.60;4.40;;;15.30;99.90;;;;;;4989903;28;20470;-67
2022/05/20 05:02:21;;;;;;;3.83;3.63;;;15.30;99.90;;;;;;4991046;28;20499;-67
2022/05/20 05:04:48;;;;;;;3.70;3.60;;;15.30;99.90;;;;;;4990836;28;20582;-67
2022/05/20 05:07:15;;;;;;;3.90;3.70;;;15.30;99.90;;;;;;4991200;28;20475;-68
2022/05/20 05:09:45;;;;;;;5.00;4.57;;;15.20;99.90;;;;;;4990266;28;20470;-68
2022/05/20 05:12:12;;;;;;;3.80;3.70;;;15.20;99.90;;;;;;4991619;28;20512;-67
2022/05/20 05:14:41;;;;;;;4.90;4.70;;;15.10;99.90;;;;;;4989995;28;20941;-67
2022/05/20 05:17:09;;;;;;;4.47;4.37;;;15.20;99.90;;;;;;4991205;28;20935;-67
2022/05/20 05:19:37;;;;;;;4.90;4.70;;;15.20;99.90;;;;;;4990444;28;20536;-67
2022/05/20 05:22:05;;;;;;;4.30;4.10;;;15.30;99.90;;;;;;4990845;28;20504;-67
2022/05/20 05:24:32;;;;;;;4.60;4.43;;;15.30;99.90;;;;;;4992503;28;20497;-67
2022/05/20 05:27:01;;;;;;;4.57;4.27;;;15.30;99.90;;;;;;4994926;28;20512;-67
2022/05/20 05:29:28;;;;;;;4.67;4.30;;;15.30;99.90;;;;;;4994009;28;20513;-68
2022/05/20 05:31:54;;;;;;;4.57;4.27;;;15.30;99.90;;;;;;4993953;28;20482;-68
2022/05/20 05:34:21;;;;;;;4.40;4.13;;;15.30;99.90;;;;;;4994390;28;20940;-67
2022/05/20 05:36:48;;;;;;;3.80;3.60;;;15.20;99.90;;;;;;4994486;28;20533;-68
2022/05/20 05:39:14;;;;;;;4.07;3.83;;;15.20;99.90;;;;;;4994721;28;20883;-68
2022/05/20 05:41:41;;;;;;;4.80;4.33;;;15.30;99.90;;;;;;4993908;28;20487;-68
2022/05/20 05:44:09;;;;;;;3.57;3.40;;;15.30;99.90;;;;;;4992925;28;20554;-68
2022/05/20 05:46:36;;;;;;;4.57;4.37;;;15.30;99.90;;;;;;4993623;28;20599;-67
2022/05/20 05:49:03;;;;;;;4.73;4.50;;;15.40;99.90;;;;;;4994118;28;20466;-67
2022/05/20 05:51:30;;;;;;;4.53;4.20;;;15.60;99.90;;;;;;4993420;28;20994;-67
2022/05/20 05:53:57;;;;;;;3.70;3.60;;;15.60;99.90;;;;;;4994505;28;20486;-68
2022/05/20 05:56:24;;;;;;;3.10;3.03;;;15.70;99.90;;;;;;4995161;28;20513;-68
2022/05/20 05:58:51;;;;;;;6.47;3.80;;;15.70;99.90;;;;;;4994433;28;20859;-68
2022/05/20 06:01:19;;;;;;;2.93;2.83;;;15.80;99.90;;;;;;4993180;28;20505;-69
2022/05/20 06:03:46;;;;;;;3.17;3.07;;;15.80;99.90;;;;;;4994037;28;20471;-68
2022/05/20 06:06:12;;;;;;;3.27;3.17;;;15.80;99.90;;;;;;4994520;28;20565;-69
2022/05/20 06:08:39;;;;;;;3.20;3.00;;;15.80;99.90;;;;;;4994177;28;20463;-69
2022/05/20 06:11:06;;;;;;;3.30;3.20;;;15.90;99.90;;;;;;4993510;28;20487;-68
2022/05/20 06:13:33;;;;;;;3.70;2.90;;;15.90;99.90;;;;;;4993644;28;20470;-68
2022/05/20 06:16:00;;;;;;;2.70;2.60;;;16.00;99.90;;;;;;4974687;28;20459;-68
2022/05/20 06:18:28;;;;;;;2.80;2.70;;;16.00;99.90;;;;;;4991615;28;20455;-68
2022/05/20 06:20:55;;;;;;;3.00;2.80;;;16.10;99.90;;;;;;4993092;28;20545;-68
2022/05/20 06:23:22;;;;;;;3.23;3.03;;;16.20;99.90;;;;;;4994143;28;20466;-68
2022/05/20 06:25:49;;;;;;;3.70;3.40;;;16.20;99.90;;;;;;4993643;28;20908;-69
2022/05/20 06:28:18;;;;;;;2.80;2.70;;;16.40;99.90;;;;;;4993774;28;20467;-69
2022/05/20 06:30:45;;;;;;;2.63;2.53;;;16.80;99.90;;;;;;4991998;28;20483;-69
2022/05/20 06:33:12;;;;;;;3.30;3.10;;;16.80;99.90;;;;;;4993656;28;20459;-69
2022/05/20 06:41:14;;;;;;;2.90;2.73;;;16.80;99.90;;;;;;4954774;28;20811;-69
2022/05/20 06:43:41;;;;;;;3.57;3.20;;;16.80;99.90;;;;;;4992869;28;20815;-69
2022/05/20 06:46:08;;;;;;;3.33;3.23;;;16.80;99.90;;;;;;4992745;28;20494;-69
2022/05/20 06:48:40;;;;;;;3.93;3.60;;;16.70;99.90;;;;;;4993181;28;20994;-67
2022/05/20 06:51:11;;;;;;;3.40;3.20;;;16.60;99.90;;;;;;4992730;28;20483;-68
2022/05/20 06:53:37;;;;;;;4.53;3.50;;;16.60;99.90;;;;;;4985119;28;20892;-68
2022/05/20 06:56:05;;;;;;;3.60;3.33;;;16.60;99.90;;;;;;4993011;28;21002;-67
2022/05/20 06:58:32;;;;;;;4.93;3.77;;;16.70;99.90;;;;;;4993204;28;20471;-67
2022/05/20 07:00:58;;;;;;;3.47;3.37;;;16.90;99.90;;;;;;4992239;28;20991;-67
2022/05/20 07:03:25;;;;;;;4.00;3.67;;;17.00;99.90;;;;;;4993172;28;20463;-68
2022/05/20 07:05:52;;;;;;;3.10;2.97;;;17.00;99.90;;;;;;4992899;28;21026;-67
2022/05/20 07:08:20;;;;;;;3.67;3.57;;;17.00;99.90;;;;;;4992976;28;20944;-68
2022/05/20 07:10:47;;;;;;;3.70;3.60;;;16.90;99.90;;;;;;4991918;28;20483;-68
2022/05/20 07:13:14;;;;;;;4.17;3.80;;;16.90;99.90;;;;;;4992882;28;20610;-68
2022/05/20 07:15:40;;;;;;;3.97;3.53;;;16.90;99.90;;;;;;4991789;28;20467;-68
2022/05/20 07:18:07;;;;;;;4.27;4.07;;;17.10;99.90;;;;;;4992830;28;20555;-68
2022/05/20 07:20:34;;;;;;;4.03;3.83;;;17.20;99.90;;;;;;4991724;28;20513;-68
2022/05/20 07:23:01;;;;;;;4.60;4.30;;;17.20;99.90;;;;;;4992368;28;20876;-68
2022/05/20 07:25:29;;;;;;;4.17;3.80;;;17.30;99.90;;;;;;4992089;28;20900;-68
2022/05/20 07:27:59;;;;;;;3.50;3.43;;;17.40;99.90;;;;;;4992180;28;20936;-68
2022/05/20 07:30:26;;;;;;;3.90;3.70;;;17.40;99.90;;;;;;4990674;28;20473;-67
2022/05/20 07:32:53;;;;;;;3.70;3.57;;;17.30;99.90;;;;;;4992448;28;20470;-67
2022/05/20 07:35:20;;;;;;;3.67;3.57;;;17.30;99.90;;;;;;4992152;28;20459;-68
2022/05/20 07:37:48;;;;;;;3.50;3.40;;;17.50;99.90;;;;;;4992166;28;20498;-68
2022/05/20 07:40:15;;;;;;;3.90;3.70;;;17.70;99.90;;;;;;4991700;28;20548;-68
2022/05/20 07:42:43;;;;;;;3.10;3.00;;;17.90;99.90;;;;;;4988543;28;20526;-68
2022/05/20 07:45:10;;;;;;;4.73;3.70;;;18.00;99.90;;;;;;4991165;28;20529;-68
2022/05/20 07:47:36;;;;;;;3.93;3.47;;;18.00;99.90;;;;;;4991745;28;20920;-68
2022/05/20 07:50:04;;;;;;;3.97;3.67;;;18.00;99.90;;;;;;4991840;28;21020;-68
2022/05/20 07:55:21;;;;;;;3.73;3.53;;;17.80;99.90;;;;;;4992447;28;20537;-69
2022/05/20 07:57:49;;;;;;;4.00;3.87;;;17.90;99.90;;;;;;4992129;28;20467;-68
2022/05/20 08:00:16;;;;;;;3.17;3.07;;;17.80;99.90;;;;;;4990542;28;20462;-67
2022/05/20 08:02:44;;;;;;;3.73;3.10;;;17.80;99.90;;;;;;4991451;28;20459;-68
2022/05/20 08:05:11;;;;;;;4.17;3.23;;;18.10;99.90;;;;;;4991624;28;21007;-68
2022/05/20 08:07:42;;;;;;;2.60;2.60;;;18.10;99.90;;;;;;4992149;28;20463;-68
2022/05/20 08:10:13;;;;;;;3.13;3.03;;;18.30;99.90;;;;;;4991534;28;20879;-68
2022/05/20 08:12:40;;;;;;;3.40;3.20;;;18.20;99.90;;;;;;4991561;28;20936;-69
2022/05/20 08:15:10;;;;;;;5.10;2.90;;;18.30;99.90;;;;;;4985919;28;20883;-68
2022/05/20 08:17:40;;;;;;;3.20;3.20;;;18.40;99.90;;;;;;4991607;28;20550;-69
2022/05/20 08:20:09;;;;;;;3.37;3.17;;;18.50;99.90;;;;;;4990945;28;20836;-69
2022/05/20 08:22:36;;;;;;;3.20;3.00;;;18.70;99.90;;;;;;4991477;28;20529;-68
2022/05/20 08:25:05;;;;;;;3.77;3.20;;;18.60;99.90;;;;;;4991296;28;20541;-69
2022/05/20 08:27:32;;;;;;;4.23;4.00;;;18.60;99.90;;;;;;4991477;28;20458;-68
2022/05/20 08:30:03;;;;;;;3.73;3.43;;;18.60;99.90;;;;;;4989809;28;20936;-69
2022/05/20 08:32:31;;;;;;;3.30;3.20;;;18.90;99.90;;;;;;4991644;28;20577;-68
2022/05/20 08:34:58;;;;;;;4.57;3.43;;;18.90;99.90;;;;;;4991522;28;20536;-68
2022/05/20 08:37:24;;;;;;;5.43;5.03;;;19.20;99.90;;;;;;4991717;28;20798;-68
2022/05/20 08:39:51;;;;;;;3.90;3.80;;;19.20;99.90;;;;;;4991180;28;20581;-69
2022/05/20 08:42:23;;;;;;;4.37;4.13;;;19.30;99.90;;;;;;4991449;28;20902;-69
2022/05/20 08:44:50;;;;;;;3.53;3.23;;;19.20;99.90;;;;;;4990724;28;20750;-68
2022/05/20 08:47:23;;;;;;;4.00;3.80;;;19.00;99.90;;;;;;4991468;28;20475;-68
2022/05/20 08:49:57;;;;;;;3.77;3.43;;;19.00;99.90;;;;;;4990854;28;20467;-69
2022/05/20 08:52:23;;;;;;;3.47;3.33;;;19.00;99.90;;;;;;4991264;28;20575;-68
2022/05/20 08:54:50;;;;;;;3.50;3.40;;;19.10;99.90;;;;;;4991453;28;20471;-68
2022/05/20 08:57:23;;;;;;;2.87;2.77;;;19.20;99.90;;;;;;4991310;28;20466;-68
2022/05/20 08:59:49;;;;;;;3.00;2.90;;;19.40;99.90;;;;;;4993836;28;20948;-68
2022/05/20 09:02:16;;;;;;;3.20;3.03;;;19.50;99.90;;;;;;4995099;28;20870;-68
2022/05/20 09:04:43;;;;;;;3.10;2.97;;;19.60;99.90;;;;;;4976288;28;20467;-69
2022/05/20 09:07:14;;;;;;;3.13;3.03;;;19.60;99.90;;;;;;4975523;28;20470;-67
2022/05/20 09:09:45;;;;;;;2.70;2.70;;;19.70;99.90;;;;;;4975043;28;20948;-69
2022/05/20 09:12:26;;;;;;;3.03;2.93;;;19.90;99.90;;;;;;4975760;28;20849;-67
2022/05/20 09:17:48;;;;;;;3.60;3.50;;;19.70;99.90;;;;;;4976109;28;20446;-68
2022/05/20 09:20:18;;;;;;;3.20;3.10;;;19.60;99.90;;;;;;4975099;28;20475;-69
2022/05/20 09:22:58;;;;;;;4.00;3.67;;;19.60;99.90;;;;;;4975202;28;20463;-69
2022/05/20 09:25:27;;;;;;;3.67;2.83;;;19.70;99.90;;;;;;4975385;28;20483;-68
2022/05/20 09:27:57;;;;;;;2.50;2.50;;;19.40;99.90;;;;;;4974999;28;21061;-69
2022/05/20 09:30:25;;;;;;;2.73;2.63;;;19.20;99.90;;;;;;4973502;28;20578;-69
2022/05/20 09:33:01;;;;;;;2.80;2.70;;;19.20;99.90;;;;;;4975105;28;20467;-69
2022/05/20 09:35:34;;;;;;;3.30;3.20;;;19.40;99.90;;;;;;4974969;28;20467;-69
2022/05/20 09:38:10;;;;;;;2.80;2.77;;;19.70;99.90;;;;;;4975099;28;20463;-69
2022/05/20 09:40:41;;;;;;;2.87;2.77;;;19.90;99.90;;;;;;4974072;28;20487;-69
2022/05/20 09:43:11;;;;;;;2.60;2.60;;;20.10;99.90;;;;;;4979915;28;20491;-69
2022/05/20 09:45:44;;;;;;;2.73;2.63;;;20.40;99.90;;;;;;4993553;28;20561;-69
2022/05/20 09:48:11;;;;;;;2.73;2.63;;;20.50;99.90;;;;;;4994463;28;20974;-69
2022/05/20 09:50:39;;;;;;;3.07;2.67;;;20.40;99.90;;;;;;4993834;28;20573;-69
2022/05/20 09:53:16;;;;;;;2.30;2.20;;;20.40;99.90;;;;;;4994740;28;20536;-69
2022/05/20 09:55:44;;;;;;;2.50;2.50;;;20.10;99.90;;;;;;4994543;28;20474;-70
2022/05/20 09:58:15;;;;;;;3.00;2.53;;;20.00;99.90;;;;;;4994359;28;20513;-69
2022/05/20 10:00:46;;;;;;;2.57;2.53;;;20.00;99.90;;;;;;4992545;28;21084;-68
2022/05/20 10:03:19;;;;;;;2.70;2.50;;;20.00;99.90;;;;;;4994164;28;20466;-69
2022/05/20 10:06:02;;;;;;;2.67;2.57;;;20.10;99.90;;;;;;4993700;28;20490;-68
2022/05/20 10:08:38;;;;;;;2.30;2.20;;;20.10;99.90;;;;;;4994104;28;20467;-67
2022/05/20 10:11:11;;;;;;;2.30;2.20;;;20.10;99.90;;;;;;4992874;28;20977;-68
2022/05/20 10:13:45;;;;;;;2.70;2.67;;;20.00;99.90;;;;;;5011393;23;20866;-71
2022/05/20 10:16:18;;;;;;;2.70;2.50;;;19.90;99.90;;;;;;4971275;28;20468;-70
2022/05/20 10:18:54;;;;;;;2.60;2.50;;;19.80;99.90;;;;;;4974674;28;20833;-70
2022/05/20 10:21:33;;;;;;;2.43;2.30;;;19.80;99.90;;;;;;4973928;28;20567;-70
2022/05/20 10:24:11;;;;;;;4.73;2.30;;;19.90;99.90;;;;;;4974336;28;20487;-70
2022/05/20 10:26:46;;;;;;;2.37;2.37;;;20.10;99.90;;;;;;4974061;28;20601;-71
2022/05/20 10:34:57;;;;;;;3.40;2.67;;;20.10;99.90;;;;;;4973801;28;20487;-71
2022/05/20 10:37:31;;;;;;;2.60;2.50;;;20.10;99.90;;;;;;4974406;28;20807;-71
2022/05/20 10:40:26;;;;;;;2.60;2.40;;;20.10;99.90;;;;;;4973492;28;20522;-70
2022/05/20 10:43:05;;;;;;;2.07;2.07;;;20.20;99.90;;;;;;4974378;28;20476;-70
2022/05/20 10:48:46;;;;;;;1.93;1.93;;;20.20;99.90;;;;;;4973979;28;20459;-70
2022/05/20 10:51:25;;;;;;;2.60;2.40;;;20.30;99.90;;;;;;4973310;28;20518;-71
2022/05/20 10:54:03;;;;;;;2.60;2.10;;;20.30;99.90;;;;;;4973617;28;20487;-70
2022/05/20 10:56:53;;;;;;;2.83;2.03;;;20.40;99.90;;;;;;4973630;28;20518;-71
2022/05/20 10:59:33;;;;;;;2.10;2.10;;;20.30;99.90;;;;;;4973258;28;20951;-71
2022/05/20 11:02:15;;;;;;;3.40;2.20;;;20.30;99.90;;;;;;4973739;28;20471;-71
2022/05/20 11:05:03;;;;;;;2.00;2.00;;;20.40;99.90;;;;;;4966992;28;20542;-71
2022/05/20 11:07:52;;;;;;;2.30;2.13;;;20.30;99.90;;;;;;4973383;28;20519;-71
2022/05/20 11:10:42;;;;;;;2.53;2.43;;;20.30;99.90;;;;;;4972606;28;20467;-71
2022/05/20 11:13:20;;;;;;;2.50;2.03;;;20.50;99.90;;;;;;4973445;28;20472;-71
2022/05/20 11:16:01;;;;;;;2.63;2.53;;;20.60;99.90;;;;;;4972952;28;20459;-72
2022/05/20 11:18:48;;;;;;;2.20;2.10;;;20.70;99.90;;;;;;4973432;28;20464;-72
2022/05/20 11:21:34;;;;;;;2.70;2.27;;;20.70;99.90;;;;;;4971940;28;20526;-70
2022/05/20 11:24:34;;;;;;;2.53;2.33;;;20.80;99.90;;;;;;4973455;28;20518;-70
2022/05/20 11:27:26;;;;;;;5.63;2.13;;;20.80;99.90;;;;;;4973017;28;20642;-70
2022/05/20 11:30:10;;;;;;;2.27;2.17;;;20.90;99.90;;;;;;4970341;28;21004;-67
2022/05/20 11:33:06;;;;;;;2.37;2.37;;;21.00;99.90;;;;;;4969356;28;20522;-67
2022/05/20 11:35:59;;;;;;;2.00;2.00;;;21.20;99.90;;;;;;4972326;28;20467;-67
2022/05/20 11:39:00;;;;;;;2.30;2.17;;;21.40;99.90;;;;;;4971873;28;20833;-68
2022/05/20 11:41:36;;;;;;;2.00;2.00;;;21.70;99.90;;;;;;4964438;28;20534;-66
2022/05/20 11:44:26;;;;;;;2.37;2.23;;;21.80;99.90;;;;;;4960644;28;20895;-67
2022/05/20 11:47:25;;;;;;;2.30;2.20;;;21.90;99.90;;;;;;4972132;28;20499;-67
2022/05/20 11:50:20;;;;;;;2.23;2.13;;;21.90;99.90;;;;;;4971132;28;20463;-67
2022/05/20 11:53:01;;;;;;;2.37;2.27;;;21.90;99.90;;;;;;4966653;28;20578;-67
2022/05/20 11:55:36;;;;;;;2.13;1.80;;;21.80;99.90;;;;;;4971949;28;20459;-67
2022/05/20 11:58:05;;;;;;;2.23;2.23;;;21.90;99.90;;;;;;4965171;28;21030;-68
2022/05/20 12:00:36;;;;;;;2.30;2.20;;;22.00;99.90;;;;;;4970979;28;20463;-67
2022/05/20 12:03:08;;;;;;;2.90;2.80;;;21.90;99.90;;;;;;4972746;28;20470;-67
2022/05/20 12:05:40;;;;;;;2.10;2.10;;;22.00;99.90;;;;;;4971680;28;20471;-67
2022/05/20 12:08:07;;;;;;;4.40;3.10;;;22.00;99.90;;;;;;4953336;28;20666;-67
2022/05/20 12:10:47;;;;;;;1.97;1.90;;;22.00;99.90;;;;;;4969648;28;20541;-67
2022/05/20 12:13:20;;;;;;;2.30;2.10;;;22.00;99.90;;;;;;4972151;28;20846;-67
2022/05/20 12:15:50;;;;;;;2.80;2.60;;;22.20;99.90;;;;;;4971444;28;20470;-69
2022/05/20 12:24:22;;;;;;;2.23;2.13;;;22.50;99.90;;;;;;4971981;28;20518;-68
2022/05/20 12:26:50;;;;;;;2.17;2.07;;;22.60;99.90;;;;;;4972172;28;20484;-68
2022/05/20 12:29:47;;;;;;;4.47;2.73;;;22.80;99.90;;;;;;4971413;28;20467;-73
2022/05/20 12:32:42;;;;;;;3.90;3.00;;;23.00;99.90;;;;;;4963014;28;20491;-74
2022/05/20 12:35:13;;;;;;;7.43;2.57;;;22.90;99.90;;;;;;4952917;28;20591;-73
2022/05/20 12:38:19;;;;;;;2.50;2.30;;;23.00;99.90;;;;;;4969563;28;20555;-71
2022/05/20 12:41:17;;;;;;;2.67;2.67;;;22.90;99.90;;;;;;4971661;28;20463;-70
2022/05/20 12:43:54;;;;;;;2.77;2.70;;;20.50;99.90;;;;;;4940528;28;20471;-70
2022/05/20 12:46:44;;;;;;;3.50;3.17;;;19.60;99.90;;;;;;4971551;28;20507;-70
2022/05/20 12:49:11;;;;;;;3.50;3.20;;;18.90;99.90;;;;;;4972165;28;20844;-70
2022/05/20 12:51:44;;;;;;;2.37;2.37;;;19.00;99.90;;;;;;4971649;28;20479;-70
2022/05/20 12:54:23;;;;;;;3.27;2.97;;;19.40;99.90;;;;;;4971733;28;20519;-71
2022/05/20 12:56:56;;;;;;;3.07;2.97;;;19.80;99.90;;;;;;4972313;28;20482;-71
2022/05/20 12:59:24;;;;;;;2.60;2.60;;;20.10;99.90;;;;;;4971874;28;20844;-71
2022/05/20 13:01:57;;;;;;;2.80;2.80;;;20.40;99.90;;;;;;4971314;28;20548;-71
2022/05/20 13:04:26;;;;;;;3.70;2.43;;;20.70;99.90;;;;;;4966518;28;20515;-70
2022/05/20 13:06:55;;;;;;;2.90;2.80;;;20.90;99.90;;;;;;4955285;28;20543;-71
2022/05/20 13:09:25;;;;;;;3.20;2.53;;;21.10;99.90;;;;;;4955894;28;20488;-71
2022/05/20 13:11:52;;;;;;;2.90;2.67;;;21.20;99.90;;;;;;4971391;28;20531;-71
2022/05/20 13:14:22;;;;;;;2.40;2.30;;;21.40;99.90;;;;;;4971494;28;20545;-71
2022/05/20 13:16:54;;;;;;;4.23;2.57;;;21.50;99.90;;;;;;4971390;28;20456;-71
2022/05/20 13:19:29;;;;;;;2.50;2.50;;;21.70;99.90;;;;;;4971263;28;20547;-70
2022/05/20 13:22:04;;;;;;;2.70;2.57;;;21.70;99.90;;;;;;4971564;28;20530;-71
2022/05/20 13:24:35;;;;;;;2.00;2.00;;;21.80;99.90;;;;;;4971294;28;21083;-71
2022/05/20 13:27:07;;;;;;;2.10;2.10;;;21.90;99.90;;;;;;4971652;28;20559;-71
2022/05/20 13:29:34;;;;;;;2.57;2.47;;;22.00;99.90;;;;;;4969479;28;20816;-71
2022/05/20 13:32:29;;;;;;;3.03;2.70;;;21.90;99.90;;;;;;4971719;28;20542;-71
2022/05/20 13:34:58;;;;;;;2.13;2.13;;;22.00;99.90;;;;;;4937148;28;21197;-71
2022/05/20 13:37:30;;;;;;;3.13;3.03;;;22.00;99.90;;;;;;4970881;28;20464;-71
2022/05/20 13:40:02;;;;;;;2.87;2.77;;;22.00;99.90;;;;;;4970458;28;20518;-71
2022/05/20 13:42:32;;;;;;;4.40;2.50;;;22.00;99.90;;;;;;4971183;28;20467;-71
2022/05/20 13:45:10;;;;;;;2.83;2.73;;;22.10;99.90;;;;;;4971364;28;20476;-72
2022/05/20 13:50:23;;;;;;;2.30;2.30;;;22.20;99.90;;;;;;4973668;28;20454;-71
2022/05/20 13:52:51;;;;;;;2.37;2.20;;;22.30;99.90;;;;;;4974344;28;20460;-71
2022/05/20 13:55:19;;;;;;;2.80;2.70;;;22.20;99.90;;;;;;4956245;28;20516;-71
2022/05/20 13:57:49;;;;;;;2.43;2.43;;;22.20;99.90;;;;;;4959673;28;20880;-71
2022/05/20 14:00:22;;;;;;;3.00;2.90;;;22.20;99.90;;;;;;4973324;28;20467;-72
2022/05/20 14:02:55;;;;;;;2.13;2.13;;;22.20;99.90;;;;;;4959142;28;20538;-71
2022/05/20 14:05:25;;;;;;;2.70;2.60;;;22.10;99.90;;;;;;4974103;28;20833;-71
2022/05/20 14:07:55;;;;;;;8.60;3.10;;;22.10;99.90;;;;;;4959165;28;20567;-71
2022/05/20 14:10:26;;;;;;;2.80;2.70;;;22.20;99.90;;;;;;4968539;28;20472;-73
2022/05/20 14:12:56;;;;;;;3.10;3.00;;;22.20;99.90;;;;;;4974265;28;20831;-73
2022/05/20 14:15:31;;;;;;;2.43;2.43;;;22.20;99.90;;;;;;4973824;28;20498;-73
2022/05/20 14:18:02;;;;;;;2.80;2.73;;;22.30;99.90;;;;;;4974420;28;20990;-73
2022/05/20 14:20:31;;;;;;;2.73;2.63;;;22.50;99.90;;;;;;4974010;28;20475;-73
2022/05/20 14:23:01;;;;;;;2.70;2.60;;;22.70;99.90;;;;;;4974354;28;20471;-73
2022/05/20 14:25:31;;;;;;;2.73;2.73;;;22.80;99.90;;;;;;4975200;28;21136;-73
2022/05/20 14:28:14;;;;;;;2.97;2.87;;;22.90;99.90;;;;;;4973981;28;20484;-73
2022/05/20 14:30:44;;;;;;;3.07;2.87;;;22.90;99.90;;;;;;4975533;28;20472;-74
2022/05/20 14:33:18;;;;;;;4.30;3.37;;;22.80;99.90;;;;;;4968843;28;20485;-74
2022/05/20 14:35:48;;;;;;;2.70;2.60;;;22.80;99.90;;;;;;4970002;28;20551;-74
2022/05/20 14:38:20;;;;;;;2.97;2.87;;;22.80;99.90;;;;;;4978769;28;20452;-74
2022/05/20 14:40:51;;;;;;;2.90;2.80;;;22.80;99.90;;;;;;4975040;28;20472;-75
2022/05/20 14:43:24;;;;;;;3.00;2.90;;;22.80;99.90;;;;;;4975397;28;20540;-73
2022/05/20 14:45:54;;;;;;;2.50;2.50;;;22.70;99.90;;;;;;4973771;28;20558;-73
2022/05/20 14:48:28;;;;;;;2.57;2.57;;;22.80;99.90;;;;;;4974108;28;20578;-73
2022/05/20 14:50:56;;;;;;;2.60;2.60;;;22.60;99.90;;;;;;4973074;28;20555;-74
2022/05/20 14:53:27;;;;;;;4.50;3.20;;;22.40;99.90;;;;;;4973944;28;20505;-73
2022/05/20 14:55:56;;;;;;;2.60;2.40;;;22.30;99.90;;;;;;4973504;28;21016;-73
2022/05/20 14:58:29;;;;;;;2.70;2.60;;;22.10;99.90;;;;;;4973394;28;20511;-73
2022/05/20 15:00:57;;;;;;;2.87;2.77;;;22.30;99.90;;;;;;4972211;28;20945;-73
2022/05/20 15:03:26;;;;;;;3.20;2.97;;;22.30;99.90;;;;;;4973460;28;20484;-73
2022/05/20 15:05:54;;;;;;;3.23;2.63;;;22.40;99.90;;;;;;4973336;28;20468;-73
2022/05/20 15:08:26;;;;;;;2.47;2.47;;;22.40;99.90;;;;;;4973146;28;20487;-74
2022/05/20 15:10:58;;;;;;;4.60;3.20;;;22.50;99.90;;;;;;4972250;28;20550;-73
2022/05/20 15:13:26;;;;;;;2.87;2.77;;;22.50;99.90;;;;;;4959459;28;20942;-73
2022/05/20 15:15:52;;;;;;;2.97;2.87;;;22.60;99.90;;;;;;4969442;28;20467;-73
2022/05/20 15:18:20;;;;;;;2.80;2.60;;;22.70;99.90;;;;;;4973388;28;20538;-73
2022/05/20 15:20:51;;;;;;;2.60;2.50;;;22.80;99.90;;;;;;4972909;28;20464;-73
2022/05/20 15:23:21;;;;;;;3.00;2.90;;;22.70;99.90;;;;;;4972808;28;20464;-74
2022/05/20 15:25:51;;;;;;;2.43;2.43;;;22.70;99.90;;;;;;4973197;28;20850;-73
2022/05/20 15:36:32;;;;;;;3.23;2.83;;;22.70;99.90;;;;;;4973142;28;20447;-73
2022/05/20 15:38:59;;;;;;;3.03;3.03;;;22.70;99.90;;;;;;4973030;28;20858;-73
2022/05/20 15:41:28;;;;;;;2.70;2.70;;;22.70;99.90;;;;;;4972911;28;20530;-74
2022/05/20 15:43:54;;;;;;;3.03;3.03;;;22.80;99.90;;;;;;4972970;28;20591;-74
2022/05/20 15:46:21;;;;;;;2.80;2.80;;;22.80;99.90;;;;;;4972402;28;20463;-74
2022/05/20 15:48:48;;;;;;;3.13;2.93;;;22.90;99.90;;;;;;4973011;28;20487;-72
2022/05/20 15:51:15;;;;;;;2.77;2.67;;;22.90;99.90;;;;;;4972405;28;20468;-72
2022/05/20 15:53:42;;;;;;;2.73;2.63;;;22.80;99.90;;;;;;4966680;28;20519;-72
2022/05/20 15:56:09;;;;;;;3.10;2.90;;;22.70;99.90;;;;;;4953931;28;20476;-72
2022/05/20 15:58:37;;;;;;;3.03;2.93;;;22.60;99.90;;;;;;4953461;28;20467;-73
2022/05/20 16:01:03;;;;;;;2.67;2.57;;;22.60;99.90;;;;;;4952586;28;20622;-73
2022/05/20 16:03:30;;;;;;;2.80;2.80;;;22.50;99.90;;;;;;4965330;28;20484;-73
2022/05/20 16:05:58;;;;;;;2.93;2.83;;;22.50;99.90;;;;;;4973123;28;20471;-73
2022/05/20 16:08:26;;;;;;;2.80;2.80;;;22.40;99.90;;;;;;4971719;28;20546;-73
2022/05/20 16:10:54;;;;;;;3.30;3.20;;;22.30;99.90;;;;;;4971764;28;20608;-73
2022/05/20 16:13:22;;;;;;;3.20;3.10;;;22.20;99.90;;;;;;4984825;23;20475;-66
2022/05/20 16:15:50;;;;;;;3.30;3.10;;;22.10;99.90;;;;;;4933165;29;20523;-67
2022/05/20 16:18:17;;;;;;;3.93;3.50;;;22.00;99.90;;;;;;4933372;29;20461;-67
2022/05/20 16:20:47;;;;;;;3.50;3.30;;;22.00;99.90;;;;;;4920168;29;20872;-69
2022/05/20 16:23:18;;;;;;;2.87;2.77;;;21.90;99.90;;;;;;4915983;29;20470;-68
2022/05/20 16:25:45;;;;;;;3.50;3.30;;;21.80;99.90;;;;;;4933246;29;20461;-68
2022/05/20 16:28:13;;;;;;;3.90;3.70;;;21.70;99.90;;;;;;4932577;29;20487;-68
2022/05/20 16:30:39;;;;;;;2.97;2.87;;;21.70;99.90;;;;;;4924017;29;20466;-67
2022/05/20 16:33:08;;;;;;;3.90;3.80;;;21.70;99.90;;;;;;4924645;29;20528;-68
2022/05/20 16:35:35;;;;;;;3.80;3.60;;;21.70;99.90;;;;;;4925156;29;20469;-68
2022/05/20 16:38:03;;;;;;;3.33;3.23;;;21.70;99.90;;;;;;4920230;29;20525;-67
2022/05/20 16:40:29;;;;;;;3.73;3.43;;;21.70;99.90;;;;;;4930366;29;20465;-67
2022/05/20 16:42:56;;;;;;;3.83;3.73;;;21.70;99.90;;;;;;4932527;29;20545;-68
2022/05/20 16:45:24;;;;;;;3.73;3.63;;;21.70;99.90;;;;;;4917439;29;20824;-68
2022/05/20 16:47:55;;;;;;;3.87;3.37;;;21.70;99.90;;;;;;4914472;29;20601;-68
2022/05/20 16:50:24;;;;;;;3.47;2.80;;;21.70;99.90;;;;;;4913835;29;20489;-67
2022/05/20 16:52:51;;;;;;;3.00;2.90;;;21.70;99.90;;;;;;4916025;29;20462;-69
2022/05/20 16:55:19;;;;;;;2.70;2.70;;;21.60;99.90;;;;;;4914492;29;20522;-68
2022/05/20 17:03:15;;;;;;;3.53;3.33;;;21.40;99.90;;;;;;4931109;29;20465;-68
2022/05/20 17:05:43;;;;;;;3.57;3.37;;;21.40;99.90;;;;;;4914649;29;20470;-67
2022/05/20 17:08:12;;;;;;;3.50;3.40;;;21.30;99.90;;;;;;4914666;29;20491;-67
2022/05/20 17:10:39;;;;;;;3.33;3.27;;;21.30;99.90;;;;;;4932288;29;20967;-68
2022/05/20 17:13:14;;;;;;;4.37;4.00;;;21.30;99.90;;;;;;4932527;29;20468;-69
2022/05/20 17:15:41;;;;;;;3.70;3.43;;;21.20;99.90;;;;;;4913343;29;20520;-68
2022/05/20 17:18:08;;;;;;;3.73;3.53;;;21.10;99.90;;;;;;4913834;29;20976;-69
2022/05/20 17:20:35;;;;;;;4.17;3.87;;;21.00;99.90;;;;;;4916657;29;20510;-67
2022/05/20 17:25:47;;;;;;;3.90;3.77;;;20.80;99.90;;;;;;4932461;29;20449;-67
2022/05/20 17:28:16;;;;;;;4.73;4.27;;;20.70;99.90;;;;;;4935026;29;20489;-69
2022/05/20 17:30:43;;;;;;;4.30;4.10;;;20.70;99.90;;;;;;4916597;29;20463;-68
2022/05/20 17:33:09;;;;;;;4.70;4.50;;;20.50;99.90;;;;;;4918911;29;20493;-68
2022/05/20 17:35:36;;;;;;;3.97;3.70;;;20.40;99.90;;;;;;4921397;29;20474;-66
2022/05/20 17:38:05;;;;;;;4.67;4.50;;;20.30;99.90;;;;;;4920033;29;20462;-67
2022/05/20 17:40:32;;;;;;;4.07;3.97;;;20.20;99.90;;;;;;4931267;29;20565;-66
2022/05/20 17:42:59;;;;;;;4.97;4.67;;;20.10;99.90;;;;;;4924803;29;20480;-66
2022/05/20 17:45:26;;;;;;;4.80;4.50;;;20.10;99.90;;;;;;4939071;29;20493;-66
2022/05/20 17:47:52;;;;;;;4.93;4.63;;;20.10;99.90;;;;;;4940267;29;20512;-68
2022/05/20 17:50:19;;;;;;;4.40;4.30;;;20.00;99.90;;;;;;4932474;29;20462;-68
2022/05/20 17:52:46;;;;;;;5.67;5.27;;;20.00;99.90;;;;;;4920865;29;20462;-68
2022/05/20 17:55:14;;;;;;;5.00;4.80;;;19.90;99.90;;;;;;4924786;29;20524;-67
2022/05/20 17:57:41;;;;;;;5.00;4.80;;;19.90;99.90;;;;;;4925937;29;20458;-67